sensor_id;sensor_type;location;lat;lon;timestamp;temperature;humidity
7014;DHT22;3547;50.774;12.918;2023-03-26T00:00:14;6.40;1.00
7014;DHT22;3547;50.774;12.918;2023-03-26T00:02:41;6.40;1.00
7014;DHT22;3547;50.774;12.918;2023-03-26T00:05:08;6.40;1.00
7014;DHT22;3547;50.774;12.918;2023-03-26T00:07:35;6.50;1.00
7014;DHT22;3547;50.774;12.918;2023-03-26T00:10:01;6.50;1.00
7014;DHT22;3547;50.774;12.918;2023-03-26T00:12:28;6.50;1.00
7014;DHT22;3547;50.774;12.918;2023-03-26T00:14:54;6.50;1.00
7014;DHT22;3547;50.774;12.918;2023-03-26T00:17:20;6.50;1.00
7014;DHT22;3547;50.774;12.918;2023-03-26T00:19:47;6.50;1.00
7014;DHT22;3547;50.774;12.918;2023-03-26T00:22:13;6.60;1.00
7014;DHT22;3547;50.774;12.918;2023-03-26T00:24:41;6.60;1.00
7014;DHT22;3547;50.774;12.918;2023-03-26T00:27:10;6.60;1.00
7014;DHT22;3547;50.774;12.918;2023-03-26T00:29:37;6.60;1.00
7014;DHT22;3547;50.774;12.918;2023-03-26T00:32:04;6.60;1.00
7014;DHT22;3547;50.774;12.918;2023-03-26T00:34:31;6.60;1.00
7014;DHT22;3547;50.774;12.918;2023-03-26T00:36:59;6.70;1.00
7014;DHT22;3547;50.774;12.918;2023-03-26T00:39:28;6.70;1.00
7014;DHT22;3547;50.774;12.918;2023-03-26T00:41:58;6.70;1.00
7014;DHT22;3547;50.774;12.918;2023-03-26T00:44:27;6.70;1.00
7014;DHT22;3547;50.774;12.918;2023-03-26T00:47:24;6.70;1.00
7014;DHT22;3547;50.774;12.918;2023-03-26T00:49:51;6.70;1.00
7014;DHT22;3547;50.774;12.918;2023-03-26T00:52:18;6.70;1.00
7014;DHT22;3547;50.774;12.918;2023-03-26T00:54:50;6.70;1.00
7014;DHT22;3547;50.774;12.918;2023-03-26T00:57:17;6.70;1.00
7014;DHT22;3547;50.774;12.918;2023-03-26T00:59:46;6.70;1.00
7014;DHT22;3547;50.774;12.918;2023-03-26T01:02:15;6.70;1.00
7014;DHT22;3547;50.774;12.918;2023-03-26T01:04:49;6.70;1.00
7014;DHT22;3547;50.774;12.918;2023-03-26T01:07:23;6.70;1.00
7014;DHT22;3547;50.774;12.918;2023-03-26T01:09:58;6.70;1.00
7014;DHT22;3547;50.774;12.918;2023-03-26T01:12:26;6.70;1.00
7014;DHT22;3547;50.774;12.918;2023-03-26T01:14:58;6.70;1.00
7014;DHT22;3547;50.774;12.918;2023-03-26T01:17:27;6.70;1.00
7014;DHT22;3547;50.774;12.918;2023-03-26T01:22:47;6.70;1.00
7014;DHT22;3547;50.774;12.918;2023-03-26T01:25:14;6.70;1.00
7014;DHT22;3547;50.774;12.918;2023-03-26T01:27:48;6.70;1.00
7014;DHT22;3547;50.774;12.918;2023-03-26T01:36:20;6.80;1.00
7014;DHT22;3547;50.774;12.918;2023-03-26T01:39:00;6.80;1.00
7014;DHT22;3547;50.774;12.918;2023-03-26T01:41:32;6.80;1.00
7014;DHT22;3547;50.774;12.918;2023-03-26T01:46:29;6.90;1.00
7014;DHT22;3547;50.774;12.918;2023-03-26T01:49:05;6.80;1.00
7014;DHT22;3547;50.774;12.918;2023-03-26T01:51:40;6.90;1.00
7014;DHT22;3547;50.774;12.918;2023-03-26T01:54:11;6.90;1.00
7014;DHT22;3547;50.774;12.918;2023-03-26T02:05:42;6.80;1.00
7014;DHT22;3547;50.774;12.918;2023-03-26T02:08:19;6.70;1.00
7014;DHT22;3547;50.774;12.918;2023-03-26T02:10:51;6.60;1.00
7014;DHT22;3547;50.774;12.918;2023-03-26T02:13:19;6.50;1.00
7014;DHT22;3547;50.774;12.918;2023-03-26T02:16:22;6.50;1.00
7014;DHT22;3547;50.774;12.918;2023-03-26T02:18:49;6.50;1.00
7014;DHT22;3547;50.774;12.918;2023-03-26T02:21:22;6.50;1.00
7014;DHT22;3547;50.774;12.918;2023-03-26T02:23:53;6.40;1.00
7014;DHT22;3547;50.774;12.918;2023-03-26T02:26:29;6.50;1.00
7014;DHT22;3547;50.774;12.918;2023-03-26T02:28:56;6.40;1.00
7014;DHT22;3547;50.774;12.918;2023-03-26T02:31:23;6.30;1.00
7014;DHT22;3547;50.774;12.918;2023-03-26T02:33:53;6.30;1.00
7014;DHT22;3547;50.774;12.918;2023-03-26T02:36:20;6.30;1.00
7014;DHT22;3547;50.774;12.918;2023-03-26T02:38:50;6.30;1.00
7014;DHT22;3547;50.774;12.918;2023-03-26T02:41:16;6.30;1.00
7014;DHT22;3547;50.774;12.918;2023-03-26T02:43:43;6.40;1.00
7014;DHT22;3547;50.774;12.918;2023-03-26T02:46:31;6.40;1.00
7014;DHT22;3547;50.774;12.918;2023-03-26T02:48:57;6.40;1.00
7014;DHT22;3547;50.774;12.918;2023-03-26T02:51:24;6.30;1.00
7014;DHT22;3547;50.774;12.918;2023-03-26T02:53:50;6.40;1.00
7014;DHT22;3547;50.774;12.918;2023-03-26T02:56:18;6.40;1.00
7014;DHT22;3547;50.774;12.918;2023-03-26T02:58:44;6.40;1.00
7014;DHT22;3547;50.774;12.918;2023-03-26T03:01:11;6.40;1.00
7014;DHT22;3547;50.774;12.918;2023-03-26T03:03:38;6.40;1.00
7014;DHT22;3547;50.774;12.918;2023-03-26T03:06:04;6.40;1.00
7014;DHT22;3547;50.774;12.918;2023-03-26T03:08:30;6.40;1.00
7014;DHT22;3547;50.774;12.918;2023-03-26T03:11:11;6.50;1.00
7014;DHT22;3547;50.774;12.918;2023-03-26T03:13:37;6.50;1.00
7014;DHT22;3547;50.774;12.918;2023-03-26T03:16:04;6.50;1.00
7014;DHT22;3547;50.774;12.918;2023-03-26T03:18:30;6.50;1.00
7014;DHT22;3547;50.774;12.918;2023-03-26T03:20:56;6.50;1.00
7014;DHT22;3547;50.774;12.918;2023-03-26T03:23:22;6.50;1.00
7014;DHT22;3547;50.774;12.918;2023-03-26T03:25:49;6.50;1.00
7014;DHT22;3547;50.774;12.918;2023-03-26T03:28:17;6.60;1.00
7014;DHT22;3547;50.774;12.918;2023-03-26T03:30:44;6.60;1.00
7014;DHT22;3547;50.774;12.918;2023-03-26T03:33:10;6.60;1.00
7014;DHT22;3547;50.774;12.918;2023-03-26T03:35:37;6.60;1.00
7014;DHT22;3547;50.774;12.918;2023-03-26T03:38:04;6.60;1.00
7014;DHT22;3547;50.774;12.918;2023-03-26T03:40:31;6.60;1.00
7014;DHT22;3547;50.774;12.918;2023-03-26T03:42:57;6.60;1.00
7014;DHT22;3547;50.774;12.918;2023-03-26T03:45:28;6.50;1.00
7014;DHT22;3547;50.774;12.918;2023-03-26T03:47:54;6.40;1.00
7014;DHT22;3547;50.774;12.918;2023-03-26T03:50:21;6.40;1.00
7014;DHT22;3547;50.774;12.918;2023-03-26T03:52:47;6.40;1.00
7014;DHT22;3547;50.774;12.918;2023-03-26T03:55:13;6.40;1.00
7014;DHT22;3547;50.774;12.918;2023-03-26T03:57:40;6.30;1.00
7014;DHT22;3547;50.774;12.918;2023-03-26T04:00:07;6.30;1.00
7014;DHT22;3547;50.774;12.918;2023-03-26T04:02:34;6.30;1.00
7014;DHT22;3547;50.774;12.918;2023-03-26T04:05:01;6.30;33.30
7014;DHT22;3547;50.774;12.918;2023-03-26T04:07:29;6.20;47.40
7014;DHT22;3547;50.774;12.918;2023-03-26T04:09:58;6.30;58.90
7014;DHT22;3547;50.774;12.918;2023-03-26T04:12:28;6.40;46.30
7014;DHT22;3547;50.774;12.918;2023-03-26T04:14:55;6.30;1.00
7014;DHT22;3547;50.774;12.918;2023-03-26T04:17:22;6.30;1.00
7014;DHT22;3547;50.774;12.918;2023-03-26T04:19:49;6.30;1.00
7014;DHT22;3547;50.774;12.918;2023-03-26T04:22:18;6.30;1.00
7014;DHT22;3547;50.774;12.918;2023-03-26T04:24:44;6.30;1.00
7014;DHT22;3547;50.774;12.918;2023-03-26T04:27:17;6.40;1.00
7014;DHT22;3547;50.774;12.918;2023-03-26T04:29:47;6.40;1.00
7014;DHT22;3547;50.774;12.918;2023-03-26T04:32:28;6.30;1.00
7014;DHT22;3547;50.774;12.918;2023-03-26T04:35:01;6.30;1.00
7014;DHT22;3547;50.774;12.918;2023-03-26T04:37:32;6.40;1.00
7014;DHT22;3547;50.774;12.918;2023-03-26T04:40:01;6.40;1.00
7014;DHT22;3547;50.774;12.918;2023-03-26T04:42:31;6.30;1.00
7014;DHT22;3547;50.774;12.918;2023-03-26T04:44:58;6.30;1.00
7014;DHT22;3547;50.774;12.918;2023-03-26T04:47:24;6.30;1.00
7014;DHT22;3547;50.774;12.918;2023-03-26T04:49:50;6.40;1.00
7014;DHT22;3547;50.774;12.918;2023-03-26T04:52:16;6.40;1.00
7014;DHT22;3547;50.774;12.918;2023-03-26T04:54:43;6.40;1.00
7014;DHT22;3547;50.774;12.918;2023-03-26T04:57:29;6.40;1.00
7014;DHT22;3547;50.774;12.918;2023-03-26T04:59:57;6.50;1.00
7014;DHT22;3547;50.774;12.918;2023-03-26T05:02:24;6.50;1.00
7014;DHT22;3547;50.774;12.918;2023-03-26T05:04:53;6.50;1.00
7014;DHT22;3547;50.774;12.918;2023-03-26T05:07:20;6.50;1.00
7014;DHT22;3547;50.774;12.918;2023-03-26T05:09:49;6.50;1.00
7014;DHT22;3547;50.774;12.918;2023-03-26T05:12:16;6.50;1.00
7014;DHT22;3547;50.774;12.918;2023-03-26T05:14:42;6.60;1.00
7014;DHT22;3547;50.774;12.918;2023-03-26T05:17:13;6.50;1.00
7014;DHT22;3547;50.774;12.918;2023-03-26T05:19:40;6.50;1.00
7014;DHT22;3547;50.774;12.918;2023-03-26T05:22:06;6.50;1.00
7014;DHT22;3547;50.774;12.918;2023-03-26T05:24:32;6.50;1.00
7014;DHT22;3547;50.774;12.918;2023-03-26T05:26:58;6.50;1.00
7014;DHT22;3547;50.774;12.918;2023-03-26T05:29:25;6.50;1.00
7014;DHT22;3547;50.774;12.918;2023-03-26T05:31:51;6.50;1.00
7014;DHT22;3547;50.774;12.918;2023-03-26T05:34:19;6.50;1.00
7014;DHT22;3547;50.774;12.918;2023-03-26T05:36:45;6.50;1.00
7014;DHT22;3547;50.774;12.918;2023-03-26T05:39:11;6.50;1.00
7014;DHT22;3547;50.774;12.918;2023-03-26T05:41:39;6.50;1.00
7014;DHT22;3547;50.774;12.918;2023-03-26T05:44:05;6.50;1.00
7014;DHT22;3547;50.774;12.918;2023-03-26T05:46:31;6.40;1.00
7014;DHT22;3547;50.774;12.918;2023-03-26T05:48:57;6.50;1.00
7014;DHT22;3547;50.774;12.918;2023-03-26T05:51:23;6.60;1.00
7014;DHT22;3547;50.774;12.918;2023-03-26T05:53:49;6.60;1.00
7014;DHT22;3547;50.774;12.918;2023-03-26T05:56:16;6.60;1.00
7014;DHT22;3547;50.774;12.918;2023-03-26T05:58:42;6.70;1.00
7014;DHT22;3547;50.774;12.918;2023-03-26T06:01:10;6.70;1.00
7014;DHT22;3547;50.774;12.918;2023-03-26T06:03:42;6.70;1.00
7014;DHT22;3547;50.774;12.918;2023-03-26T06:06:16;6.70;1.00
7014;DHT22;3547;50.774;12.918;2023-03-26T06:08:43;6.70;1.00
7014;DHT22;3547;50.774;12.918;2023-03-26T06:11:14;6.80;1.00
7014;DHT22;3547;50.774;12.918;2023-03-26T06:13:41;6.80;1.00
7014;DHT22;3547;50.774;12.918;2023-03-26T06:16:12;6.80;1.00
7014;DHT22;3547;50.774;12.918;2023-03-26T06:18:39;6.80;1.00
7014;DHT22;3547;50.774;12.918;2023-03-26T06:21:06;6.90;1.00
7014;DHT22;3547;50.774;12.918;2023-03-26T06:23:32;6.90;1.00
7014;DHT22;3547;50.774;12.918;2023-03-26T06:26:26;6.80;1.00
7014;DHT22;3547;50.774;12.918;2023-03-26T06:28:52;6.90;1.00
7014;DHT22;3547;50.774;12.918;2023-03-26T06:31:18;6.80;1.00
7014;DHT22;3547;50.774;12.918;2023-03-26T06:33:44;6.80;1.00
7014;DHT22;3547;50.774;12.918;2023-03-26T06:36:11;6.90;1.00
7014;DHT22;3547;50.774;12.918;2023-03-26T06:38:37;7.00;1.00
7014;DHT22;3547;50.774;12.918;2023-03-26T06:41:05;7.00;1.00
7014;DHT22;3547;50.774;12.918;2023-03-26T06:43:31;7.00;1.00
7014;DHT22;3547;50.774;12.918;2023-03-26T06:46:02;7.10;1.00
7014;DHT22;3547;50.774;12.918;2023-03-26T06:48:28;7.10;1.00
7014;DHT22;3547;50.774;12.918;2023-03-26T06:50:54;7.00;1.00
7014;DHT22;3547;50.774;12.918;2023-03-26T06:53:20;7.00;1.00
7014;DHT22;3547;50.774;12.918;2023-03-26T06:55:46;7.10;1.00
7014;DHT22;3547;50.774;12.918;2023-03-26T06:58:13;7.20;1.00
7014;DHT22;3547;50.774;12.918;2023-03-26T07:00:39;7.20;1.00
7014;DHT22;3547;50.774;12.918;2023-03-26T07:03:07;7.20;1.00
7014;DHT22;3547;50.774;12.918;2023-03-26T07:05:33;7.30;1.00
7014;DHT22;3547;50.774;12.918;2023-03-26T07:07:59;7.30;1.00
7014;DHT22;3547;50.774;12.918;2023-03-26T07:10:25;7.50;1.00
7014;DHT22;3547;50.774;12.918;2023-03-26T07:12:52;7.50;1.00
7014;DHT22;3547;50.774;12.918;2023-03-26T07:15:18;7.70;1.00
7014;DHT22;3547;50.774;12.918;2023-03-26T07:17:44;7.80;1.00
7014;DHT22;3547;50.774;12.918;2023-03-26T07:20:11;7.70;1.00
7014;DHT22;3547;50.774;12.918;2023-03-26T07:22:37;7.80;1.00
7014;DHT22;3547;50.774;12.918;2023-03-26T07:25:05;7.90;1.00
7014;DHT22;3547;50.774;12.918;2023-03-26T07:30:45;7.90;1.00
7014;DHT22;3547;50.774;12.918;2023-03-26T07:36:43;7.90;1.00
7014;DHT22;3547;50.774;12.918;2023-03-26T08:01:22;8.60;1.00
7014;DHT22;3547;50.774;12.918;2023-03-26T08:07:25;8.60;1.00
7014;DHT22;3547;50.774;12.918;2023-03-26T08:15:30;8.50;1.00
7014;DHT22;3547;50.774;12.918;2023-03-26T08:20:51;8.80;1.00
7014;DHT22;3547;50.774;12.918;2023-03-26T08:23:21;8.80;1.00
7014;DHT22;3547;50.774;12.918;2023-03-26T08:25:59;8.90;1.00
7014;DHT22;3547;50.774;12.918;2023-03-26T08:31:36;8.90;1.00
7014;DHT22;3547;50.774;12.918;2023-03-26T08:34:04;9.00;1.00
7014;DHT22;3547;50.774;12.918;2023-03-26T08:36:31;9.20;1.00
7014;DHT22;3547;50.774;12.918;2023-03-26T08:38:57;9.30;1.00
7014;DHT22;3547;50.774;12.918;2023-03-26T09:01:02;9.70;1.00
7014;DHT22;3547;50.774;12.918;2023-03-26T11:13:59;12.80;99.90
7014;DHT22;3547;50.774;12.918;2023-03-26T11:16:57;12.70;99.90
7014;DHT22;3547;50.774;12.918;2023-03-26T11:19:45;12.30;99.90
7014;DHT22;3547;50.774;12.918;2023-03-26T11:22:41;11.90;99.90
7014;DHT22;3547;50.774;12.918;2023-03-26T11:28:14;12.20;99.90
7014;DHT22;3547;50.774;12.918;2023-03-26T11:33:47;12.50;99.90
7014;DHT22;3547;50.774;12.918;2023-03-26T11:36:18;12.70;99.90
7014;DHT22;3547;50.774;12.918;2023-03-26T11:38:49;12.50;99.90
7014;DHT22;3547;50.774;12.918;2023-03-26T11:41:24;12.10;99.90
7014;DHT22;3547;50.774;12.918;2023-03-26T11:46:41;11.80;99.90
7014;DHT22;3547;50.774;12.918;2023-03-26T11:49:10;11.70;99.90
7014;DHT22;3547;50.774;12.918;2023-03-26T11:51:38;12.00;99.90
7014;DHT22;3547;50.774;12.918;2023-03-26T11:54:06;12.00;99.90
7014;DHT22;3547;50.774;12.918;2023-03-26T11:56:52;12.00;99.90
7014;DHT22;3547;50.774;12.918;2023-03-26T11:59:21;11.70;99.90
7014;DHT22;3547;50.774;12.918;2023-03-26T12:01:57;11.60;99.90
7014;DHT22;3547;50.774;12.918;2023-03-26T12:04:27;11.60;99.90
7014;DHT22;3547;50.774;12.918;2023-03-26T12:07:21;11.70;99.90
7014;DHT22;3547;50.774;12.918;2023-03-26T12:09:58;11.60;99.90
7014;DHT22;3547;50.774;12.918;2023-03-26T12:12:36;11.50;99.90
7014;DHT22;3547;50.774;12.918;2023-03-26T12:15:06;11.40;99.90
7014;DHT22;3547;50.774;12.918;2023-03-26T12:17:38;11.40;99.90
7014;DHT22;3547;50.774;12.918;2023-03-26T12:22:54;11.30;99.90
7014;DHT22;3547;50.774;12.918;2023-03-26T12:30:30;11.40;99.90
7014;DHT22;3547;50.774;12.918;2023-03-26T12:33:27;11.40;99.90
7014;DHT22;3547;50.774;12.918;2023-03-26T12:35:55;11.30;99.90
7014;DHT22;3547;50.774;12.918;2023-03-26T12:41:09;10.40;99.90
7014;DHT22;3547;50.774;12.918;2023-03-26T12:46:25;10.10;99.90
7014;DHT22;3547;50.774;12.918;2023-03-26T12:48:53;10.10;99.90
7014;DHT22;3547;50.774;12.918;2023-03-26T13:11:36;9.60;1.00
7014;DHT22;3547;50.774;12.918;2023-03-26T13:15:07;9.50;1.00
7014;DHT22;3547;50.774;12.918;2023-03-26T13:17:16;9.40;1.00
7014;DHT22;3547;50.774;12.918;2023-03-26T13:20:06;9.50;1.00
7014;DHT22;3547;50.774;12.918;2023-03-26T13:22:45;9.30;1.00
7014;DHT22;3547;50.774;12.918;2023-03-26T13:31:27;9.10;1.00
7014;DHT22;3547;50.774;12.918;2023-03-26T13:36:44;8.90;1.00
7014;DHT22;3547;50.774;12.918;2023-03-26T13:39:45;8.80;1.00
7014;DHT22;3547;50.774;12.918;2023-03-26T13:47:49;8.30;1.00
7014;DHT22;3547;50.774;12.918;2023-03-26T13:50:29;8.10;1.00
7014;DHT22;3547;50.774;12.918;2023-03-26T13:53:02;8.10;1.00
7014;DHT22;3547;50.774;12.918;2023-03-26T13:55:39;8.10;1.00
7014;DHT22;3547;50.774;12.918;2023-03-26T14:01:15;8.00;1.00
7014;DHT22;3547;50.774;12.918;2023-03-26T14:03:57;8.00;1.00
7014;DHT22;3547;50.774;12.918;2023-03-26T14:06:47;7.90;1.00
7014;DHT22;3547;50.774;12.918;2023-03-26T14:14:37;8.20;1.00
7014;DHT22;3547;50.774;12.918;2023-03-26T14:17:22;8.20;1.00
7014;DHT22;3547;50.774;12.918;2023-03-26T14:22:53;8.20;1.00
7014;DHT22;3547;50.774;12.918;2023-03-26T14:28:23;8.20;1.00
7014;DHT22;3547;50.774;12.918;2023-03-26T14:31:20;8.20;1.00
7014;DHT22;3547;50.774;12.918;2023-03-26T14:36:46;8.30;1.00
7014;DHT22;3547;50.774;12.918;2023-03-26T14:42:26;8.40;1.00
7014;DHT22;3547;50.774;12.918;2023-03-26T14:53:30;8.50;1.00
7014;DHT22;3547;50.774;12.918;2023-03-26T15:10:13;8.70;1.00
7014;DHT22;3547;50.774;12.918;2023-03-26T15:43:13;8.30;1.00
7014;DHT22;3547;50.774;12.918;2023-03-26T15:48:30;8.30;1.00
7014;DHT22;3547;50.774;12.918;2023-03-26T16:01:57;8.20;1.00
7014;DHT22;3547;50.774;12.918;2023-03-26T16:04:42;8.10;1.00
7014;DHT22;3547;50.774;12.918;2023-03-26T16:08:06;8.20;1.00
7014;DHT22;3547;50.774;12.918;2023-03-26T16:10:55;8.20;1.00
7014;DHT22;3547;50.774;12.918;2023-03-26T16:13:34;8.20;1.00
7014;DHT22;3547;50.774;12.918;2023-03-26T16:18:36;8.20;1.00
7014;DHT22;3547;50.774;12.918;2023-03-26T16:24:14;8.30;1.00
7014;DHT22;3547;50.774;12.918;2023-03-26T16:29:19;8.30;1.00
7014;DHT22;3547;50.774;12.918;2023-03-26T16:34:44;8.30;1.00
7014;DHT22;3547;50.774;12.918;2023-03-26T16:52:04;8.30;1.00
7014;DHT22;3547;50.774;12.918;2023-03-26T17:04:47;8.00;1.00
7014;DHT22;3547;50.774;12.918;2023-03-26T17:07:29;8.00;1.00
7014;DHT22;3547;50.774;12.918;2023-03-26T17:10:18;8.00;1.00
7014;DHT22;3547;50.774;12.918;2023-03-26T17:12:57;7.90;1.00
7014;DHT22;3547;50.774;12.918;2023-03-26T17:15:29;7.80;1.00
7014;DHT22;3547;50.774;12.918;2023-03-26T17:21:35;7.80;1.00
7014;DHT22;3547;50.774;12.918;2023-03-26T17:26:41;7.60;1.00
7014;DHT22;3547;50.774;12.918;2023-03-26T17:32:10;7.50;1.00
7014;DHT22;3547;50.774;12.918;2023-03-26T17:37:24;7.40;1.00
7014;DHT22;3547;50.774;12.918;2023-03-26T17:42:35;7.60;1.00
7014;DHT22;3547;50.774;12.918;2023-03-26T17:48:13;7.40;1.00
7014;DHT22;3547;50.774;12.918;2023-03-26T17:50:56;7.40;1.00
7014;DHT22;3547;50.774;12.918;2023-03-26T17:53:28;7.40;1.00
7014;DHT22;3547;50.774;12.918;2023-03-26T17:56:02;7.40;1.00
7014;DHT22;3547;50.774;12.918;2023-03-26T17:58:36;7.40;1.00
7014;DHT22;3547;50.774;12.918;2023-03-26T18:01:28;7.30;1.00
7014;DHT22;3547;50.774;12.918;2023-03-26T18:04:00;7.30;1.00
7014;DHT22;3547;50.774;12.918;2023-03-26T18:30:21;7.20;1.00
7014;DHT22;3547;50.774;12.918;2023-03-26T18:33:03;7.20;1.00
7014;DHT22;3547;50.774;12.918;2023-03-26T18:35:49;7.20;1.00
7014;DHT22;3547;50.774;12.918;2023-03-26T18:38:21;7.20;1.00
7014;DHT22;3547;50.774;12.918;2023-03-26T18:40:50;7.20;1.00
7014;DHT22;3547;50.774;12.918;2023-03-26T18:43:20;7.20;1.00
7014;DHT22;3547;50.774;12.918;2023-03-26T18:45:50;7.10;1.00
7014;DHT22;3547;50.774;12.918;2023-03-26T18:48:22;7.10;1.00
7014;DHT22;3547;50.774;12.918;2023-03-26T18:51:03;7.10;1.00
7014;DHT22;3547;50.774;12.918;2023-03-26T18:53:57;7.10;1.00
7014;DHT22;3547;50.774;12.918;2023-03-26T18:57:09;7.10;1.00
7014;DHT22;3547;50.774;12.918;2023-03-26T18:59:26;7.10;1.00
7014;DHT22;3547;50.774;12.918;2023-03-26T19:01:54;7.10;1.00
7014;DHT22;3547;50.774;12.918;2023-03-26T19:04:25;7.20;1.00
7014;DHT22;3547;50.774;12.918;2023-03-26T19:06:53;7.30;1.00
7014;DHT22;3547;50.774;12.918;2023-03-26T19:09:21;7.20;1.00
7014;DHT22;3547;50.774;12.918;2023-03-26T19:11:49;7.20;1.00
7014;DHT22;3547;50.774;12.918;2023-03-26T19:14:19;7.10;1.00
7014;DHT22;3547;50.774;12.918;2023-03-26T19:16:56;7.10;1.00
7014;DHT22;3547;50.774;12.918;2023-03-26T19:19:28;7.10;1.00
7014;DHT22;3547;50.774;12.918;2023-03-26T19:21:56;7.20;1.00
7014;DHT22;3547;50.774;12.918;2023-03-26T19:24:23;7.20;1.00
7014;DHT22;3547;50.774;12.918;2023-03-26T19:26:50;7.10;1.00
7014;DHT22;3547;50.774;12.918;2023-03-26T19:29:24;7.10;1.00
7014;DHT22;3547;50.774;12.918;2023-03-26T19:31:52;6.90;28.70
7014;DHT22;3547;50.774;12.918;2023-03-26T19:34:30;6.80;99.90
7014;DHT22;3547;50.774;12.918;2023-03-26T19:37:00;6.80;99.90
7014;DHT22;3547;50.774;12.918;2023-03-26T19:42:04;7.00;93.80
7014;DHT22;3547;50.774;12.918;2023-03-26T19:44:31;7.00;93.90
7014;DHT22;3547;50.774;12.918;2023-03-26T19:52:26;7.00;35.00
7014;DHT22;3547;50.774;12.918;2023-03-26T19:55:18;7.00;49.50
7014;DHT22;3547;50.774;12.918;2023-03-26T19:57:41;7.10;79.00
7014;DHT22;3547;50.774;12.918;2023-03-26T20:00:10;7.10;59.40
7014;DHT22;3547;50.774;12.918;2023-03-26T20:02:43;7.10;36.60
7014;DHT22;3547;50.774;12.918;2023-03-26T20:09:14;7.10;40.40
7014;DHT22;3547;50.774;12.918;2023-03-26T20:24:43;7.10;35.00
7014;DHT22;3547;50.774;12.918;2023-03-26T20:27:12;7.10;31.30
7014;DHT22;3547;50.774;12.918;2023-03-26T20:29:40;7.10;55.70
7014;DHT22;3547;50.774;12.918;2023-03-26T20:32:20;7.10;32.50
7014;DHT22;3547;50.774;12.918;2023-03-26T20:34:49;7.10;20.70
7014;DHT22;3547;50.774;12.918;2023-03-26T20:37:16;7.00;20.50
7014;DHT22;3547;50.774;12.918;2023-03-26T20:39:42;6.90;38.50
7014;DHT22;3547;50.774;12.918;2023-03-26T20:42:09;6.90;33.80
7014;DHT22;3547;50.774;12.918;2023-03-26T20:44:36;7.00;31.20
7014;DHT22;3547;50.774;12.918;2023-03-26T20:47:02;6.90;33.60
7014;DHT22;3547;50.774;12.918;2023-03-26T20:49:28;6.90;35.30
7014;DHT22;3547;50.774;12.918;2023-03-26T20:51:57;7.00;20.20
7014;DHT22;3547;50.774;12.918;2023-03-26T20:54:25;7.00;9.90
7014;DHT22;3547;50.774;12.918;2023-03-26T20:56:52;7.10;1.00
7014;DHT22;3547;50.774;12.918;2023-03-26T20:59:22;7.10;1.00
7014;DHT22;3547;50.774;12.918;2023-03-26T21:01:52;7.00;1.00
7014;DHT22;3547;50.774;12.918;2023-03-26T21:04:19;7.10;1.00
7014;DHT22;3547;50.774;12.918;2023-03-26T21:06:46;7.00;1.00
7014;DHT22;3547;50.774;12.918;2023-03-26T21:09:14;6.90;1.00
7014;DHT22;3547;50.774;12.918;2023-03-26T21:14:39;6.70;1.00
7014;DHT22;3547;50.774;12.918;2023-03-26T21:17:16;6.70;1.00
7014;DHT22;3547;50.774;12.918;2023-03-26T21:19:43;6.60;1.00
7014;DHT22;3547;50.774;12.918;2023-03-26T21:22:38;6.70;1.00
7014;DHT22;3547;50.774;12.918;2023-03-26T21:25:27;6.70;1.00
7014;DHT22;3547;50.774;12.918;2023-03-26T21:30:57;6.70;7.10
7014;DHT22;3547;50.774;12.918;2023-03-26T21:33:24;6.70;11.80
7014;DHT22;3547;50.774;12.918;2023-03-26T21:35:55;6.70;16.40
7014;DHT22;3547;50.774;12.918;2023-03-26T21:38:22;6.70;10.30
7014;DHT22;3547;50.774;12.918;2023-03-26T21:40:51;6.80;18.60
7014;DHT22;3547;50.774;12.918;2023-03-26T21:43:19;6.80;22.00
7014;DHT22;3547;50.774;12.918;2023-03-26T21:48:52;6.60;39.00
7014;DHT22;3547;50.774;12.918;2023-03-26T21:51:19;6.60;40.50
7014;DHT22;3547;50.774;12.918;2023-03-26T21:53:46;6.70;24.20
7014;DHT22;3547;50.774;12.918;2023-03-26T21:56:37;6.70;6.00
7014;DHT22;3547;50.774;12.918;2023-03-26T22:02:00;6.70;7.90
7014;DHT22;3547;50.774;12.918;2023-03-26T22:07:13;6.60;17.70
7014;DHT22;3547;50.774;12.918;2023-03-26T22:09:40;6.60;24.10
7014;DHT22;3547;50.774;12.918;2023-03-26T22:12:08;6.60;31.10
7014;DHT22;3547;50.774;12.918;2023-03-26T22:14:36;6.60;34.20
7014;DHT22;3547;50.774;12.918;2023-03-26T22:17:03;6.60;17.80
7014;DHT22;3547;50.774;12.918;2023-03-26T22:19:29;6.70;12.60
7014;DHT22;3547;50.774;12.918;2023-03-26T22:21:55;6.70;17.10
7014;DHT22;3547;50.774;12.918;2023-03-26T22:24:24;6.70;18.20
7014;DHT22;3547;50.774;12.918;2023-03-26T22:26:51;6.60;19.30
7014;DHT22;3547;50.774;12.918;2023-03-26T22:29:17;6.60;19.80
7014;DHT22;3547;50.774;12.918;2023-03-26T22:31:44;6.50;15.90
7014;DHT22;3547;50.774;12.918;2023-03-26T22:34:10;6.40;24.10
7014;DHT22;3547;50.774;12.918;2023-03-26T22:36:36;6.40;38.10
7014;DHT22;3547;50.774;12.918;2023-03-26T22:39:03;6.40;44.40
7014;DHT22;3547;50.774;12.918;2023-03-26T22:41:29;6.40;37.10
7014;DHT22;3547;50.774;12.918;2023-03-26T22:43:55;6.40;45.70
7014;DHT22;3547;50.774;12.918;2023-03-26T22:46:23;6.40;36.90
7014;DHT22;3547;50.774;12.918;2023-03-26T22:48:49;6.30;41.80
7014;DHT22;3547;50.774;12.918;2023-03-26T22:51:17;6.30;49.80
7014;DHT22;3547;50.774;12.918;2023-03-26T22:53:43;6.20;60.30
7014;DHT22;3547;50.774;12.918;2023-03-26T22:59:32;6.10;99.90
7014;DHT22;3547;50.774;12.918;2023-03-26T23:01:58;6.10;99.90
7014;DHT22;3547;50.774;12.918;2023-03-26T23:04:24;6.00;99.90
7014;DHT22;3547;50.774;12.918;2023-03-26T23:06:55;6.10;99.90
7014;DHT22;3547;50.774;12.918;2023-03-26T23:09:22;6.10;99.90
7014;DHT22;3547;50.774;12.918;2023-03-26T23:11:49;6.20;99.90
7014;DHT22;3547;50.774;12.918;2023-03-26T23:14:16;6.20;99.90
7014;DHT22;3547;50.774;12.918;2023-03-26T23:16:43;6.20;99.90
7014;DHT22;3547;50.774;12.918;2023-03-26T23:19:10;6.30;99.90
7014;DHT22;3547;50.774;12.918;2023-03-26T23:21:37;6.30;86.30
7014;DHT22;3547;50.774;12.918;2023-03-26T23:24:03;6.30;54.20
7014;DHT22;3547;50.774;12.918;2023-03-26T23:26:30;6.30;45.00
7014;DHT22;3547;50.774;12.918;2023-03-26T23:28:59;6.30;45.00
7014;DHT22;3547;50.774;12.918;2023-03-26T23:31:26;6.30;31.10
7014;DHT22;3547;50.774;12.918;2023-03-26T23:33:52;6.30;36.90
7014;DHT22;3547;50.774;12.918;2023-03-26T23:36:20;6.20;28.50
7014;DHT22;3547;50.774;12.918;2023-03-26T23:38:52;6.10;37.30
7014;DHT22;3547;50.774;12.918;2023-03-26T23:41:20;6.20;40.60
7014;DHT22;3547;50.774;12.918;2023-03-26T23:43:48;6.20;41.60
7014;DHT22;3547;50.774;12.918;2023-03-26T23:46:26;6.20;42.90
7014;DHT22;3547;50.774;12.918;2023-03-26T23:48:55;6.20;48.20
7014;DHT22;3547;50.774;12.918;2023-03-26T23:51:24;6.30;38.70
7014;DHT22;3547;50.774;12.918;2023-03-26T23:53:50;6.20;28.60
7014;DHT22;3547;50.774;12.918;2023-03-26T23:56:17;6.10;56.40
7014;DHT22;3547;50.774;12.918;2023-03-26T23:58:43;6.10;45.90
